Time;durP1;ratioP1;P1;durP2;ratioP2;P2;SDS_P1;SDS_P2;PMS_P1;PMS_P2;Temp;Humidity;BMP_temperature;BMP_pressure;BME280_temperature;BME280_humidity;BME280_pressure;Samples;Min_cycle;Max_cycle;Signal;HPM_P1;HPM_P2
2021/04/08 00:01:18;;;;;;;16.30;8.30;;;;;;;-0.45;70.53;99811.11;104267;1104;77770;-70
2021/04/08 00:03:23;;;;;;;15.70;7.30;;;;;;;-0.48;70.35;99809.58;104271;1105;79229;-70
2021/04/08 00:05:29;;;;;;;14.70;7.40;;;;;;;-0.48;70.88;99814.03;104281;1105;76844;-70
2021/04/08 00:07:33;;;;;;;15.80;8.50;;;;;;;-0.49;70.87;99817.64;104260;1105;77308;-72
2021/04/08 00:09:39;;;;;;;18.60;8.90;;;;;;;-0.54;70.91;99818.05;104324;1103;77207;-71
2021/04/08 00:11:44;;;;;;;19.90;9.30;;;;;;;-0.57;70.85;99825.44;104303;1104;79300;-71
2021/04/08 00:13:52;;;;;;;17.40;9.20;;;;;;;-0.60;70.70;99818.58;104275;1105;78878;-71
2021/04/08 00:15:57;;;;;;;20.70;9.10;;;;;;;-0.64;70.77;99815.38;104263;1105;77603;-71
2021/04/08 00:18:02;;;;;;;15.70;8.50;;;;;;;-0.62;70.79;99809.92;104269;1105;79417;-72
2021/04/08 00:20:15;;;;;;;16.10;7.70;;;;;;;-0.65;71.20;99813.69;104294;1104;78281;-71
2021/04/08 00:22:20;;;;;;;11.90;7.60;;;;;;;-0.67;71.21;99817.45;104289;1105;79407;-73
2021/04/08 00:24:28;;;;;;;16.00;8.50;;;;;;;-0.68;70.82;99808.64;104326;1105;77792;-72
2021/04/08 00:26:33;;;;;;;16.90;8.20;;;;;;;-0.67;71.23;99812.98;104268;1105;79280;-71
2021/04/08 00:28:38;;;;;;;15.20;7.40;;;;;;;-0.64;71.32;99820.69;104304;1105;77948;-71
2021/04/08 00:30:43;;;;;;;16.70;7.90;;;;;;;-0.65;71.62;99813.69;104218;1105;79336;-71
2021/04/08 00:32:51;;;;;;;14.90;7.40;;;;;;;-0.65;71.21;99821.64;104284;1105;78944;-71
2021/04/08 00:34:56;;;;;;;14.60;8.20;;;;;;;-0.58;71.43;99823.77;104303;1105;77979;-71
2021/04/08 00:37:01;;;;;;;13.50;8.40;;;;;;;-0.55;71.86;99819.05;104251;1105;77710;-71
2021/04/08 00:39:07;;;;;;;20.60;8.70;;;;;;;-0.46;72.02;99822.69;104293;1105;78034;-72
2021/04/08 00:41:14;;;;;;;15.70;7.80;;;;;;;-0.41;71.66;99825.81;104237;1104;79132;-69
2021/04/08 00:43:19;;;;;;;14.40;7.90;;;;;;;-0.35;72.00;99815.48;104284;1105;78680;-71
2021/04/08 00:45:24;;;;;;;19.60;9.10;;;;;;;-0.25;71.67;99824.30;104303;1105;77452;-70
2021/04/08 00:47:29;;;;;;;15.20;8.50;;;;;;;-0.19;71.40;99814.95;104278;1105;78624;-70
2021/04/08 00:49:34;;;;;;;17.20;8.10;;;;;;;-0.16;72.07;99814.69;104231;1103;78268;-72
2021/04/08 00:51:39;;;;;;;12.30;7.60;;;;;;;-0.14;72.19;99807.45;104252;1105;79044;-71
2021/04/08 00:53:46;;;;;;;13.00;7.40;;;;;;;-0.11;72.17;99815.96;104277;1105;78485;-71
2021/04/08 00:55:55;;;;;;;15.40;8.20;;;;;;;-0.06;71.86;99818.23;104243;1103;78621;-70
2021/04/08 00:58:05;;;;;;;15.40;8.00;;;;;;;-0.04;71.72;99814.46;104254;1105;77095;-70
2021/04/08 01:00:15;;;;;;;15.00;8.20;;;;;;;0.01;72.20;99827.31;104293;1105;77696;-69
2021/04/08 01:02:23;;;;;;;15.00;7.80;;;;;;;0.05;71.75;99818.12;104276;1104;78282;-68
2021/04/08 01:04:31;;;;;;;13.40;8.50;;;;;;;0.09;72.31;99816.00;104224;1105;78589;-72
2021/04/08 01:06:37;;;;;;;15.30;8.40;;;;;;;0.12;72.59;99824.55;104253;1104;78558;-73
2021/04/08 01:08:45;;;;;;;16.50;8.50;;;;;;;0.17;72.21;99829.44;104258;1105;78366;-73
2021/04/08 01:10:51;;;;;;;17.30;8.10;;;;;;;0.19;72.00;99836.31;104275;1105;78864;-73
2021/04/08 01:13:01;;;;;;;15.40;8.90;;;;;;;0.19;72.14;99831.00;104280;1105;77215;-73
2021/04/08 01:15:11;;;;;;;16.70;8.10;;;;;;;0.26;72.36;99826.80;104317;1104;78037;-73
2021/04/08 01:17:28;;;;;;;18.50;8.80;;;;;;;0.31;71.94;99826.38;104255;1105;78300;-72
2021/04/08 01:20:38;;;;;;;13.70;8.10;;;;;;;0.34;72.10;99816.33;104254;1104;78602;-70
2021/04/08 01:23:04;;;;;;;17.20;8.40;;;;;;;0.35;72.21;99819.83;103729;1108;78185;-71
2021/04/08 01:25:28;;;;;;;17.10;8.90;;;;;;;0.34;72.15;99824.30;104194;1105;77923;-71
2021/04/08 01:27:42;;;;;;;17.00;8.90;;;;;;;0.32;71.94;99823.60;104264;1105;77074;-71
2021/04/08 01:30:34;;;;;;;13.60;7.70;;;;;;;0.28;72.25;99822.19;104262;1105;77103;-71
2021/04/08 01:32:44;;;;;;;16.60;8.30;;;;;;;0.22;71.91;99825.39;104253;1104;78493;-71
2021/04/08 01:34:54;;;;;;;18.10;7.90;;;;;;;0.20;71.66;99827.34;104261;1103;78069;-71
2021/04/08 01:37:06;;;;;;;15.00;8.70;;;;;;;0.18;71.92;99829.31;104265;1104;77972;-72
2021/04/08 01:39:15;;;;;;;17.60;8.60;;;;;;;0.18;71.85;99818.69;104283;1105;77893;-71
2021/04/08 01:41:24;;;;;;;15.90;8.10;;;;;;;0.19;71.79;99817.72;104301;1105;78560;-70
2021/04/08 01:43:35;;;;;;;17.50;8.20;;;;;;;0.22;71.94;99825.39;104286;1105;77994;-71
2021/04/08 01:45:41;;;;;;;15.40;8.50;;;;;;;0.24;72.00;99819.95;104298;1105;78065;-70
2021/04/08 01:47:47;;;;;;;17.40;9.10;;;;;;;0.30;72.49;99828.19;104279;1105;78425;-71
2021/04/08 01:49:55;;;;;;;16.40;8.50;;;;;;;0.33;72.12;99832.42;104258;1103;77567;-70
2021/04/08 01:52:01;;;;;;;17.40;8.90;;;;;;;0.35;72.39;99819.83;104266;1105;77583;-70
2021/04/08 01:54:09;;;;;;;16.00;7.90;;;;;;;0.38;72.34;99820.40;104277;1105;78005;-70
2021/04/08 01:56:17;;;;;;;13.40;8.70;;;;;;;0.38;71.69;99820.40;104294;1105;77053;-70
2021/04/08 01:58:28;;;;;;;16.80;8.20;;;;;;;0.35;71.62;99815.36;104286;1105;76826;-70
2021/04/08 02:00:33;;;;;;;15.60;8.80;;;;;;;0.36;72.42;99821.48;104314;1105;78079;-71
2021/04/08 02:02:40;;;;;;;17.40;9.80;;;;;;;0.35;72.25;99818.02;104250;1105;78332;-72
2021/04/08 02:04:48;;;;;;;16.20;8.90;;;;;;;0.38;72.29;99819.55;104265;1105;76953;-70
2021/04/08 02:06:54;;;;;;;17.10;8.70;;;;;;;0.39;72.49;99827.38;104272;1105;78500;-70
2021/04/08 02:09:04;;;;;;;16.30;8.70;;;;;;;0.37;72.25;99818.70;104301;1105;78482;-72
2021/04/08 02:11:16;;;;;;;17.10;8.90;;;;;;;0.37;72.04;99821.36;104291;1104;77714;-72
2021/04/08 02:13:23;;;;;;;16.40;8.80;;;;;;;0.41;72.49;99816.63;104296;1105;76617;-72
2021/04/08 02:15:29;;;;;;;14.90;8.90;;;;;;;0.43;72.57;99822.63;104271;1104;77438;-72
2021/04/08 02:17:36;;;;;;;16.10;9.10;;;;;;;0.44;72.57;99819.81;104292;1103;78070;-72
2021/04/08 02:19:44;;;;;;;17.40;10.00;;;;;;;0.46;72.78;99823.20;104241;1105;78554;-68
2021/04/08 02:21:51;;;;;;;12.90;8.70;;;;;;;0.52;72.64;99822.61;104274;1105;77306;-69
2021/04/08 02:24:01;;;;;;;15.00;8.90;;;;;;;0.55;72.68;99821.49;104281;1104;78738;-71
2021/04/08 02:26:08;;;;;;;15.80;9.10;;;;;;;0.58;72.51;99826.53;104266;1105;78595;-71
2021/04/08 02:28:13;;;;;;;16.70;9.70;;;;;;;0.60;72.71;99828.06;104255;1105;78764;-71
2021/04/08 02:30:23;;;;;;;13.40;8.80;;;;;;;0.62;72.61;99837.73;104241;1104;77084;-70
2021/04/08 02:32:29;;;;;;;15.20;9.40;;;;;;;0.63;72.47;99834.95;104264;1105;78159;-72
2021/04/08 02:34:35;;;;;;;16.90;9.40;;;;;;;0.68;72.74;99838.02;104257;1105;77525;-72
2021/04/08 02:36:40;;;;;;;15.60;9.50;;;;;;;0.71;72.54;99843.06;104262;1104;78225;-70
2021/04/08 02:38:47;;;;;;;16.40;9.50;;;;;;;0.72;72.24;99844.72;104282;1105;76828;-71
2021/04/08 02:40:54;;;;;;;20.30;9.50;;;;;;;0.77;72.91;99844.31;104283;1105;78755;-70
2021/04/08 02:42:59;;;;;;;14.10;8.80;;;;;;;0.76;72.89;99843.47;104314;1105;76628;-71
2021/04/08 02:45:06;;;;;;;17.50;9.10;;;;;;;0.81;72.33;99838.56;104291;1104;79073;-73
2021/04/08 02:47:11;;;;;;;20.20;10.50;;;;;;;0.80;72.79;99839.53;104295;1103;77346;-73
2021/04/08 02:49:19;;;;;;;16.20;10.70;;;;;;;0.84;72.90;99842.77;104255;1105;78699;-70
2021/04/08 02:51:30;;;;;;;18.20;10.50;;;;;;;0.84;72.72;99842.77;104269;1105;77305;-70
2021/04/08 02:53:45;;;;;;;19.60;11.20;;;;;;;0.83;72.64;99843.73;104255;1104;78821;-70
2021/04/08 02:56:06;;;;;;;19.10;11.50;;;;;;;0.85;72.35;99841.80;104307;1105;78087;-70
2021/04/08 02:58:15;;;;;;;19.10;11.30;;;;;;;0.87;72.23;99847.80;104253;1105;77449;-70
2021/04/08 03:00:25;;;;;;;20.90;12.10;;;;;;;0.88;71.94;99844.17;104239;1105;78436;-71
2021/04/08 03:02:33;;;;;;;20.90;11.80;;;;;;;0.89;71.91;99845.83;104266;1104;79325;-70
2021/04/08 03:04:46;;;;;;;18.60;11.20;;;;;;;0.90;72.09;99844.86;104301;1104;78189;-74
2021/04/08 03:06:52;;;;;;;22.50;11.60;;;;;;;0.88;72.25;99844.98;104241;1104;78120;-73
2021/04/08 03:08:59;;;;;;;17.30;10.30;;;;;;;0.87;72.52;99845.98;104109;1105;79534;-73
2021/04/08 03:11:13;;;;;;;19.30;10.50;;;;;;;0.85;72.32;99845.27;104093;1105;78531;-74
2021/04/08 03:13:21;;;;;;;16.50;10.60;;;;;;;0.83;72.22;99846.39;104571;1105;76875;-74
2021/04/08 03:15:30;;;;;;;18.70;11.00;;;;;;;0.81;72.23;99843.88;104290;1103;77564;-71
2021/04/08 03:17:48;;;;;;;17.70;10.00;;;;;;;0.77;71.97;99844.31;104416;1103;78050;-70
2021/04/08 03:19:57;;;;;;;19.10;11.60;;;;;;;0.77;71.90;99854.95;104289;1103;78122;-72
2021/04/08 03:22:02;;;;;;;21.00;11.30;;;;;;;0.75;72.61;99849.75;104268;1104;78339;-71
2021/04/08 03:24:10;;;;;;;19.60;11.60;;;;;;;0.76;72.43;99846.13;104180;1105;78407;-69
2021/04/08 03:26:17;;;;;;;20.10;11.50;;;;;;;0.75;71.95;99847.09;104254;1104;77517;-69
2021/04/08 03:28:28;;;;;;;17.80;10.90;;;;;;;0.70;71.95;99857.31;104281;1105;77979;-69
2021/04/08 03:30:40;;;;;;;16.80;11.00;;;;;;;0.65;72.10;99858.72;104222;1106;78576;-68
2021/04/08 03:32:49;;;;;;;19.00;10.90;;;;;;;0.63;72.67;99866.00;104295;1105;78124;-69
2021/04/08 03:34:56;;;;;;;17.50;11.00;;;;;;;0.64;72.10;99857.88;104271;1104;79571;-73
2021/04/08 03:37:02;;;;;;;19.90;11.40;;;;;;;0.65;72.40;99862.22;104270;1104;77672;-72
2021/04/08 03:39:26;;;;;;;17.70;11.50;;;;;;;0.66;72.26;99860.41;104301;1105;76956;-72
2021/04/08 03:41:40;;;;;;;17.10;11.60;;;;;;;0.67;72.56;99862.91;104261;1104;77747;-73
2021/04/08 03:43:47;;;;;;;17.20;10.30;;;;;;;0.69;72.22;99860.13;104264;1105;77106;-73
2021/04/08 03:45:56;;;;;;;20.10;10.80;;;;;;;0.68;72.66;99858.44;104268;1105;78223;-67
2021/04/08 03:48:04;;;;;;;16.40;10.70;;;;;;;0.71;72.39;99863.48;104253;1105;78192;-70
2021/04/08 03:50:11;;;;;;;17.80;10.70;;;;;;;0.75;72.70;99864.86;104283;1105;77682;-70
2021/04/08 03:52:17;;;;;;;19.50;11.50;;;;;;;0.79;72.98;99860.95;104259;1104;77845;-70
2021/04/08 03:54:24;;;;;;;17.10;11.60;;;;;;;0.82;72.83;99868.66;104306;1103;77465;-69
2021/04/08 03:56:32;;;;;;;22.00;11.30;;;;;;;0.88;72.80;99866.25;104254;1104;77886;-70
2021/04/08 03:58:38;;;;;;;19.00;11.40;;;;;;;0.95;72.62;99871.86;104282;1105;78814;-69
2021/04/08 04:00:44;;;;;;;17.40;11.20;;;;;;;0.97;72.71;99875.20;104297;1104;78112;-69
2021/04/08 04:02:49;;;;;;;18.80;11.00;;;;;;;0.98;72.89;99869.77;104282;1105;78258;-70
2021/04/08 04:04:55;;;;;;;19.40;11.90;;;;;;;1.02;72.79;99880.94;104260;1105;77825;-73
2021/04/08 04:07:04;;;;;;;17.00;11.00;;;;;;;1.05;72.59;99872.68;104272;1104;78359;-73
2021/04/08 04:09:14;;;;;;;18.00;11.40;;;;;;;1.10;72.40;99879.25;104237;1105;78264;-73
2021/04/08 04:11:22;;;;;;;18.60;12.00;;;;;;;1.09;72.73;99874.94;104286;1105;78135;-73
2021/04/08 04:13:29;;;;;;;16.80;11.80;;;;;;;1.13;72.74;99875.47;104229;1105;77401;-71
2021/04/08 04:15:36;;;;;;;17.60;11.00;;;;;;;1.11;72.85;99880.94;104289;1105;77782;-73
2021/04/08 04:17:41;;;;;;;17.90;11.00;;;;;;;1.10;73.09;99884.57;104292;1104;76798;-73
2021/04/08 04:19:46;;;;;;;18.50;12.30;;;;;;;1.12;72.95;99879.13;104273;1105;79013;-70
2021/04/08 04:21:52;;;;;;;18.40;11.60;;;;;;;1.17;73.07;99877.72;104260;1104;77889;-70
2021/04/08 04:23:57;;;;;;;18.50;10.80;;;;;;;1.24;72.83;99891.27;104208;1105;77612;-70
2021/04/08 04:26:02;;;;;;;19.40;11.40;;;;;;;1.28;72.47;99890.02;104242;1104;78845;-70
2021/04/08 04:28:08;;;;;;;21.80;12.40;;;;;;;1.32;72.72;99888.73;104244;1105;77821;-70
2021/04/08 04:30:16;;;;;;;20.00;12.30;;;;;;;1.34;72.61;99886.80;104303;1105;77948;-73
2021/04/08 04:32:21;;;;;;;17.00;11.80;;;;;;;1.37;72.44;99890.98;104302;1104;78254;-73
2021/04/08 04:34:27;;;;;;;18.70;12.60;;;;;;;1.39;72.52;99892.52;104279;1105;76971;-72
2021/04/08 04:36:32;;;;;;;18.50;12.60;;;;;;;1.42;72.67;99886.91;104307;1105;77932;-73
2021/04/08 04:38:37;;;;;;;20.80;13.80;;;;;;;1.46;72.50;99898.94;104288;1105;77705;-72
2021/04/08 04:40:42;;;;;;;19.20;12.90;;;;;;;1.44;72.87;99903.56;104292;1104;78378;-72
2021/04/08 04:42:48;;;;;;;19.60;12.60;;;;;;;1.49;72.98;99895.14;104282;1105;77590;-72
2021/04/08 04:44:53;;;;;;;23.80;13.30;;;;;;;1.53;72.60;99891.22;104321;1105;78102;-74
2021/04/08 04:46:59;;;;;;;17.80;12.60;;;;;;;1.59;72.49;99894.13;104274;1105;78709;-72
2021/04/08 04:49:07;;;;;;;17.30;12.00;;;;;;;1.63;72.68;99898.20;104314;1105;77976;-69
2021/04/08 04:51:12;;;;;;;18.20;11.80;;;;;;;1.66;72.61;99897.06;104270;1105;79251;-69
2021/04/08 04:53:17;;;;;;;21.70;13.00;;;;;;;1.66;72.80;99897.06;104277;1105;79671;-68
2021/04/08 04:55:22;;;;;;;19.40;13.50;;;;;;;1.70;72.48;99901.13;104288;1104;78356;-69
2021/04/08 04:57:27;;;;;;;24.40;13.00;;;;;;;1.69;72.68;99900.28;104235;1105;79735;-69
2021/04/08 04:59:32;;;;;;;18.90;12.60;;;;;;;1.73;72.51;99901.66;104237;1104;78907;-73
2021/04/08 05:01:37;;;;;;;20.30;12.90;;;;;;;1.76;72.87;99901.36;104240;1104;78038;-73
2021/04/08 05:03:42;;;;;;;20.20;12.80;;;;;;;1.71;72.97;99900.97;104266;1105;79467;-72
2021/04/08 05:05:50;;;;;;;21.30;13.10;;;;;;;1.75;72.87;99912.17;104299;1104;79010;-73
2021/04/08 05:07:55;;;;;;;19.00;13.40;;;;;;;1.78;72.61;99903.90;104281;1105;78770;-72
2021/04/08 05:10:00;;;;;;;18.30;12.50;;;;;;;1.82;72.99;99905.27;104312;1105;77558;-69
2021/04/08 05:12:08;;;;;;;21.00;14.40;;;;;;;1.85;72.93;99909.46;104271;1105;77218;-65
2021/04/08 05:14:13;;;;;;;20.30;12.80;;;;;;;1.88;72.66;99910.02;104321;1104;78365;-65
2021/04/08 05:16:18;;;;;;;21.70;14.10;;;;;;;1.89;72.80;99921.52;104255;1104;78450;-64
2021/04/08 05:18:23;;;;;;;21.50;14.10;;;;;;;1.90;72.88;99923.17;104255;1104;77070;-64
2021/04/08 05:20:28;;;;;;;23.80;15.30;;;;;;;1.94;72.83;99919.25;104262;1105;77320;-65
2021/04/08 05:22:33;;;;;;;21.30;14.70;;;;;;;1.92;72.71;99916.75;104223;1105;79807;-66
2021/04/08 05:24:38;;;;;;;21.20;14.30;;;;;;;1.95;73.02;99918.28;104256;1104;78340;-63
2021/04/08 05:26:43;;;;;;;22.00;15.20;;;;;;;1.98;72.94;99932.12;104245;1102;79298;-64
2021/04/08 05:28:48;;;;;;;22.50;14.30;;;;;;;1.99;72.90;99928.48;104254;1105;78093;-62
2021/04/08 05:30:54;;;;;;;20.60;15.10;;;;;;;1.98;72.73;99926.79;104281;1103;80442;-68
2021/04/08 05:32:59;;;;;;;19.30;14.10;;;;;;;2.02;73.27;99932.67;104291;1105;77988;-65
2021/04/08 05:35:05;;;;;;;21.90;15.40;;;;;;;2.03;73.18;99929.03;104214;1105;78861;-65
2021/04/08 05:37:10;;;;;;;23.50;14.40;;;;;;;2.03;73.22;99935.20;104262;1104;79031;-66
2021/04/08 05:39:15;;;;;;;18.40;13.00;;;;;;;2.02;73.12;99938.84;104243;1105;78742;-66
2021/04/08 05:41:20;;;;;;;19.60;14.50;;;;;;;2.02;73.21;99943.33;104253;1105;77045;-66
2021/04/08 05:43:25;;;;;;;21.10;14.40;;;;;;;1.99;73.18;99944.46;104275;1105;77061;-71
2021/04/08 05:45:32;;;;;;;21.80;14.50;;;;;;;2.01;73.01;99941.64;104280;1105;78732;-70
2021/04/08 05:47:37;;;;;;;21.20;14.20;;;;;;;2.04;73.28;99947.52;104279;1105;78319;-70
2021/04/08 05:49:42;;;;;;;19.60;14.30;;;;;;;2.08;73.21;99954.25;104264;1104;78698;-70
2021/04/08 05:51:47;;;;;;;20.40;15.00;;;;;;;2.07;73.20;99954.38;104223;1104;79088;-71
2021/04/08 05:53:52;;;;;;;20.60;14.60;;;;;;;2.11;73.34;99953.96;104281;1105;78823;-67
2021/04/08 05:55:58;;;;;;;19.80;14.50;;;;;;;2.14;73.59;99964.30;104230;1105;78802;-75
2021/04/08 05:58:03;;;;;;;21.70;14.80;;;;;;;2.15;73.74;99963.33;104272;1104;77356;-76
2021/04/08 06:00:15;;;;;;;18.60;14.10;;;;;;;2.19;73.72;99964.72;104291;1104;78384;-76
2021/04/08 06:02:20;;;;;;;21.00;16.20;;;;;;;2.21;73.87;99969.89;104279;1105;78200;-75
2021/04/08 06:04:29;;;;;;;20.10;16.10;;;;;;;2.20;73.99;99963.72;104283;1104;78573;-75
2021/04/08 06:06:37;;;;;;;23.50;17.40;;;;;;;2.18;73.79;99964.85;104268;1105;78525;-75
2021/04/08 06:08:45;;;;;;;22.70;16.30;;;;;;;2.18;74.11;99967.52;104416;1099;77885;-68
2021/04/08 06:10:51;;;;;;;22.40;17.10;;;;;;;2.23;73.56;99981.23;104257;1104;79740;-68
2021/04/08 06:12:59;;;;;;;20.00;15.60;;;;;;;2.27;74.04;99972.83;104261;1103;78317;-71
2021/04/08 06:15:11;;;;;;;24.40;17.20;;;;;;;2.29;73.99;99978.84;104232;1105;78908;-70
2021/04/08 06:17:16;;;;;;;24.80;18.50;;;;;;;2.34;74.07;99983.71;104282;1104;77244;-71
2021/04/08 06:19:24;;;;;;;26.30;17.90;;;;;;;2.34;73.86;99979.23;104215;1104;78459;-67
2021/04/08 06:21:32;;;;;;;26.00;18.40;;;;;;;2.34;74.17;99984.56;104259;1105;79121;-69
2021/04/08 06:23:37;;;;;;;29.90;19.50;;;;;;;2.37;74.23;99980.76;104288;1105;78908;-69
2021/04/08 06:25:43;;;;;;;28.50;19.40;;;;;;;2.36;73.92;99987.91;104283;1105;77351;-65
2021/04/08 06:27:49;;;;;;;26.50;19.50;;;;;;;2.33;74.13;99996.19;104271;1105;79292;-70
2021/04/08 06:29:54;;;;;;;26.00;18.90;;;;;;;2.32;74.32;99993.69;104284;1105;78939;-71
2021/04/08 06:32:04;;;;;;;26.90;19.90;;;;;;;2.34;74.20;99995.22;104292;1105;79025;-72
2021/04/08 06:34:11;;;;;;;26.10;19.50;;;;;;;2.35;74.29;99998.73;104299;1104;77629;-65
2021/04/08 06:36:20;;;;;;;27.10;19.90;;;;;;;2.37;74.48;100002.08;104259;1104;77173;-65
2021/04/08 06:38:25;;;;;;;27.50;19.10;;;;;;;2.38;74.38;100001.95;104275;1105;78954;-71
2021/04/08 06:40:30;;;;;;;24.80;19.10;;;;;;;2.42;74.82;100001.66;104261;1105;78938;-71
2021/04/08 06:42:40;;;;;;;25.30;19.30;;;;;;;2.44;74.56;100002.34;104248;1105;77693;-73
2021/04/08 06:44:52;;;;;;;26.00;20.20;;;;;;;2.45;74.59;100004.84;104276;1103;77777;-72
2021/04/08 06:47:02;;;;;;;30.20;21.90;;;;;;;2.53;74.49;100020.13;104310;1105;79058;-70
2021/04/08 06:49:22;;;;;;;27.60;21.10;;;;;;;2.49;74.96;100014.24;104305;1104;76939;-71
2021/04/08 06:51:34;;;;;;;28.20;21.20;;;;;;;2.57;75.05;100016.16;104269;1101;79786;-70
2021/04/08 06:53:43;;;;;;;26.10;18.50;;;;;;;2.58;75.16;100013.37;104262;1104;78071;-64
2021/04/08 06:55:50;;;;;;;28.40;21.10;;;;;;;2.68;75.16;100024.81;104282;1104;78443;-66
2021/04/08 06:57:57;;;;;;;24.40;19.30;;;;;;;2.70;74.86;100032.66;104277;1104;78493;-65
2021/04/08 07:00:05;;;;;;;27.50;20.70;;;;;;;2.76;75.01;100030.24;104283;1104;76788;-64
2021/04/08 07:02:17;;;;;;;28.60;20.80;;;;;;;2.84;75.18;100026.83;104288;1104;77925;-65
2021/04/08 07:04:26;;;;;;;28.30;20.50;;;;;;;2.96;75.07;100034.49;104300;1104;77430;-65
2021/04/08 07:06:32;;;;;;;24.80;19.30;;;;;;;3.13;75.03;100031.99;104408;1099;78100;-74
2021/04/08 07:08:45;;;;;;;24.50;20.00;;;;;;;3.23;75.33;100033.60;104649;1098;78766;-72
2021/04/08 07:10:50;;;;;;;26.00;20.10;;;;;;;3.29;75.02;100027.66;104311;1104;77899;-71
2021/04/08 07:12:59;;;;;;;40.90;29.40;;;;;;;3.38;74.93;100028.55;104252;1103;78707;-72
2021/04/08 07:15:07;;;;;;;36.60;26.30;;;;;;;3.44;74.79;100044.81;104283;1104;78819;-65
2021/04/08 07:17:13;;;;;;;26.90;20.70;;;;;;;3.60;74.81;100037.95;104298;1104;77761;-65
2021/04/08 07:19:20;;;;;;;25.80;19.60;;;;;;;3.70;74.86;100039.55;104285;1104;76934;-65
2021/04/08 07:21:32;;;;;;;23.70;19.50;;;;;;;3.78;74.94;100044.95;104334;1104;77329;-65
2021/04/08 07:23:37;;;;;;;23.30;19.80;;;;;;;3.93;74.97;100047.89;104261;1104;77224;-65
2021/04/08 07:26:05;;;;;;;23.90;18.90;;;;;;;4.01;74.74;100046.12;104277;1104;77257;-65
2021/04/08 07:28:32;;;;;;;25.30;19.60;;;;;;;4.10;74.41;100055.88;104275;1104;78308;-69
2021/04/08 07:30:37;;;;;;;22.50;19.60;;;;;;;4.20;74.41;100061.14;104234;1104;79072;-65
2021/04/08 07:32:43;;;;;;;22.80;18.40;;;;;;;4.27;74.34;100061.33;104279;1104;77347;-65
2021/04/08 07:34:54;;;;;;;20.40;17.80;;;;;;;4.41;74.34;100068.78;104264;1103;76807;-68
2021/04/08 07:37:00;;;;;;;21.90;19.10;;;;;;;4.58;74.35;100073.23;104236;1104;78988;-67
2021/04/08 07:39:15;;;;;;;24.40;20.30;;;;;;;4.61;74.24;100070.24;104287;1105;78184;-66
2021/04/08 07:41:30;;;;;;;26.10;20.10;;;;;;;4.74;74.23;100075.98;104288;1105;78771;-66
2021/04/08 07:43:38;;;;;;;22.80;19.30;;;;;;;5.07;74.24;100076.95;104258;1105;78533;-66
2021/04/08 07:45:46;;;;;;;22.10;19.60;;;;;;;5.34;74.34;100079.38;104257;1105;78884;-67
2021/04/08 07:48:01;;;;;;;22.10;18.80;;;;;;;5.69;74.07;100079.11;104256;1103;76960;-65
2021/04/08 07:50:16;;;;;;;21.80;18.30;;;;;;;5.93;73.76;100081.02;104311;1105;78984;-68
2021/04/08 07:52:30;;;;;;;22.60;18.60;;;;;;;6.01;73.45;100081.02;104274;1105;78582;-68
2021/04/08 07:54:38;;;;;;;21.60;18.10;;;;;;;6.36;73.79;100077.12;104290;1104;77004;-81
2021/04/08 07:56:45;;;;;;;20.90;18.00;;;;;;;6.89;73.30;100081.85;104232;1105;78304;-80
2021/04/08 07:59:12;;;;;;;21.10;18.60;;;;;;;7.21;72.36;100084.39;104265;1104;78488;-66
2021/04/08 08:01:24;;;;;;;18.50;16.50;;;;;;;7.49;72.08;100093.66;104166;1105;79688;-68
2021/04/08 08:03:36;;;;;;;22.60;17.50;;;;;;;7.45;71.19;100096.84;104319;1104;77605;-67
2021/04/08 08:05:46;;;;;;;18.50;16.50;;;;;;;7.47;71.36;100095.66;104302;1105;77695;-68
2021/04/08 08:07:55;;;;;;;20.10;16.80;;;;;;;7.70;71.29;100101.91;104257;1105;79245;-67
2021/04/08 08:10:03;;;;;;;19.20;17.10;;;;;;;7.85;70.32;100104.67;104252;1105;78539;-79
2021/04/08 08:12:14;;;;;;;18.50;16.50;;;;;;;7.71;69.83;100097.38;104285;1105;78856;-81
2021/04/08 08:14:34;;;;;;;18.90;16.90;;;;;;;7.50;70.10;100113.27;104287;1105;77930;-82
2021/04/08 08:16:39;;;;;;;18.30;16.30;;;;;;;7.33;69.32;100109.87;104295;1105;79699;-82
2021/04/08 08:18:45;;;;;;;18.80;16.40;;;;;;;7.11;68.86;100114.13;104299;1105;79585;-67
2021/04/08 08:20:50;;;;;;;17.80;15.30;;;;;;;6.87;69.07;100121.44;104286;1104;79016;-68
2021/04/08 08:22:55;;;;;;;18.70;16.50;;;;;;;6.68;69.31;100125.35;104227;1105;78579;-65
2021/04/08 08:25:28;;;;;;;17.80;15.20;;;;;;;6.41;69.39;100128.41;104253;1105;78885;-67
2021/04/08 08:28:02;;;;;;;18.60;16.20;;;;;;;6.21;69.56;100135.97;104292;1105;78058;-67
2021/04/08 08:30:52;;;;;;;15.20;13.20;;;;;;;6.00;69.49;100140.15;104273;1105;78673;-67
2021/04/08 08:33:26;;;;;;;12.20;10.80;;;;;;;5.71;69.71;100141.41;104253;1103;79563;-80
2021/04/08 08:36:03;;;;;;;10.50;9.30;;;;;;;5.54;69.92;100155.79;104279;1105;76950;-81
2021/04/08 08:38:34;;;;;;;10.60;8.00;;;;;;;5.31;70.37;100158.22;104242;1105;79138;-69
2021/04/08 08:41:07;;;;;;;10.30;8.40;;;;;;;5.33;70.87;100169.59;104309;1105;78869;-67
2021/04/08 08:43:52;;;;;;;9.90;8.70;;;;;;;5.68;71.42;100176.60;104504;1100;78466;-81
2021/04/08 08:46:31;;;;;;;12.00;9.80;;;;;;;6.05;71.40;100167.30;104309;1106;77909;-81
2021/04/08 08:49:13;;;;;;;10.80;8.50;;;;;;;6.18;71.30;100171.16;104069;1105;78709;-82
2021/04/08 08:51:46;;;;;;;9.70;8.80;;;;;;;6.53;72.24;100178.90;104256;1106;78731;-80
2021/04/08 08:54:17;;;;;;;11.40;9.90;;;;;;;7.94;73.28;100178.08;104144;1105;78729;-82
2021/04/08 08:56:48;;;;;;;8.50;7.40;;;;;;;10.29;73.03;100174.50;104234;1105;79556;-82
2021/04/08 08:59:19;;;;;;;8.60;7.60;;;;;;;11.68;70.71;100170.69;104227;1104;78304;-81
2021/04/08 09:01:50;;;;;;;8.30;7.30;;;;;;;12.96;67.96;100165.91;104234;1105;79765;-81
2021/04/08 09:04:21;;;;;;;6.80;6.20;;;;;;;13.88;65.86;100172.98;104232;1104;79853;-67
2021/04/08 09:06:27;;;;;;;6.40;5.60;;;;;;;14.91;64.25;100169.81;104262;1105;78615;-68
2021/04/08 09:08:34;;;;;;;6.50;5.80;;;;;;;15.20;61.88;100169.09;104268;1104;79902;-81
2021/04/08 09:10:43;;;;;;;6.80;6.00;;;;;;;14.71;59.93;100175.41;104262;1104;76864;-82
2021/04/08 09:12:49;;;;;;;6.90;6.10;;;;;;;14.05;58.67;100174.99;104233;1105;78815;-81
2021/04/08 09:14:56;;;;;;;8.60;7.50;;;;;;;13.48;58.41;100180.45;104216;1106;78729;-78
2021/04/08 09:17:01;;;;;;;8.30;7.40;;;;;;;12.70;57.91;100186.78;104237;1105;77437;-83
2021/04/08 09:19:09;;;;;;;8.00;7.30;;;;;;;11.96;57.84;100186.86;104222;1105;78734;-67
2021/04/08 09:21:15;;;;;;;7.70;6.80;;;;;;;11.18;58.75;100195.38;104277;1106;77528;-69
2021/04/08 09:23:26;;;;;;;7.00;6.00;;;;;;;10.82;58.73;100184.76;104194;1107;79771;-68
2021/04/08 09:25:35;;;;;;;7.40;6.60;;;;;;;10.40;59.09;100198.29;104182;1107;78335;-68
2021/04/08 09:27:53;;;;;;;6.90;6.10;;;;;;;10.52;59.57;100204.86;104253;1104;78174;-73
2021/04/08 09:29:59;;;;;;;6.50;5.90;;;;;;;10.25;59.34;100205.60;104269;1104;77324;-75
2021/04/08 09:35:19;;;;;;;7.30;6.20;;;;;;;9.68;60.12;100225.26;103736;1107;76656;-71
2021/04/08 09:37:51;;;;;;;6.80;6.20;;;;;;;9.57;60.72;100217.64;103669;1107;78768;-70
2021/04/08 09:39:59;;;;;;;5.80;5.20;;;;;;;9.38;60.86;100228.99;103640;1106;78957;-71
2021/04/08 09:42:07;;;;;;;6.30;5.70;;;;;;;9.42;60.90;100224.91;103545;1108;79243;-76
2021/04/08 09:44:18;;;;;;;6.50;5.90;;;;;;;9.41;61.06;100232.16;103644;1108;77670;-70
2021/04/08 09:46:40;;;;;;;6.70;5.30;;;;;;;9.49;61.61;100225.83;104233;1105;79228;-70
2021/04/08 09:48:56;;;;;;;6.00;5.40;;;;;;;9.73;61.23;100233.62;104289;1105;77184;-68
2021/04/08 09:51:06;;;;;;;5.80;5.20;;;;;;;9.65;61.23;100231.02;104253;1104;78491;-67
2021/04/08 09:53:15;;;;;;;5.50;5.00;;;;;;;9.36;60.56;100231.05;104252;1105;78013;-67
2021/04/08 09:55:34;;;;;;;6.20;5.60;;;;;;;9.18;61.04;100234.09;104258;1105;78548;-68
2021/04/08 09:57:44;;;;;;;6.30;5.70;;;;;;;9.37;61.83;100236.23;104245;1105;77100;-71
2021/04/08 10:00:08;;;;;;;5.80;5.10;;;;;;;9.94;62.93;100233.67;104274;1104;79693;-72
2021/04/08 10:02:17;;;;;;;;;;;;;;;10.31;62.61;100243.48;104296;1105;79285;-68